Terminal Aerodrome Forecast
Issued by NWS Portland, OR

Home | Current Version | Previous Version | Text Only | Print | Product List | Glossary On
Versions: 1 2 3 4 5 6 7 8 9 10 11 12 13 14 15 16 17 18 19 20 21 22 23 24 25 26 27 28 29 30 31 32 33 34 35 36 37 38 39 40 41 42 43 44
241
FTUS46 KPQR 142342
TAFSLE
TAF
KSLE 142342Z 1500/1524 19007KT P6SM VCSH BKN050
     FM150500 VRB03KT 4SM BR OVC025
     FM151000 00000KT 2SM BR OVC006
     FM151200 00000KT 1/2SM FG OVC006
     FM151900 19005KT 4SM BR SCT006 BKN025
     FM152000 20004KT 6SM BR SCT026 OVC045=

USA.gov is the U.S. government's official web portal to all federal, state and local government web resources and services.